Time;durP1;ratioP1;P1;durP2;ratioP2;P2;SDS_P1;SDS_P2;PMS_P1;PMS_P2;Temp;Humidity;BMP_temperature;BMP_pressure;BME280_temperature;BME280_humidity;BME280_pressure;Samples;Min_cycle;Max_cycle;Signal;HPM_P1;HPM_P2
2022/08/31 00:05:22;;;;;;;28.15;17.58;;;;;;;15.60;100.00;95019.63;5084258;28;20035;-66
2022/08/31 00:07:49;;;;;;;23.50;17.20;;;;;;;15.55;100.00;95007.28;5090180;28;20105;-66
2022/08/31 00:10:18;;;;;;;23.88;16.55;;;;;;;15.56;100.00;95023.84;5087057;28;20131;-66
2022/08/31 00:12:58;;;;;;;26.50;16.80;;;;;;;15.51;100.00;95021.19;5084575;28;20044;-66
2022/08/31 00:15:28;;;;;;;25.30;17.35;;;;;;;15.49;100.00;95019.59;5078279;28;20043;-65
2022/08/31 00:17:56;;;;;;;25.17;17.67;;;;;;;15.47;100.00;95021.69;5086238;28;20048;-66
2022/08/31 00:20:24;;;;;;;24.13;17.35;;;;;;;15.47;100.00;95020.91;5087249;28;20048;-66
2022/08/31 00:23:03;;;;;;;34.10;18.30;;;;;;;15.43;100.00;95025.88;5084413;28;20178;-66
2022/08/31 00:25:31;;;;;;;27.15;18.25;;;;;;;15.37;100.00;95016.38;5078492;28;20032;-64
2022/08/31 00:27:57;;;;;;;36.08;19.88;;;;;;;15.46;100.00;95025.34;5080088;28;20059;-64
2022/08/31 00:30:25;;;;;;;26.00;17.42;;;;;;;15.51;100.00;95015.94;5082413;28;20075;-63
2022/08/31 00:32:51;;;;;;;31.20;18.83;;;;;;;15.58;100.00;95021.72;5062941;28;20073;-64
2022/08/31 00:35:23;;;;;;;27.98;19.48;;;;;;;15.57;100.00;95022.78;5063559;28;20067;-64
2022/08/31 00:37:50;;;;;;;24.80;18.98;;;;;;;15.54;100.00;95018.03;5072739;28;20051;-66
2022/08/31 00:40:17;;;;;;;32.63;20.08;;;;;;;15.53;100.00;95019.09;5081345;28;20028;-65
2022/08/31 00:42:45;;;;;;;30.33;19.60;;;;;;;15.58;100.00;95017.25;5079861;28;21255;-64
2022/08/31 00:45:12;;;;;;;32.35;19.77;;;;;;;15.64;100.00;95021.47;5064200;28;20043;-62
2022/08/31 00:47:39;;;;;;;29.90;20.30;;;;;;;15.63;100.00;95025.16;5063698;28;20516;-64
2022/08/31 00:50:09;;;;;;;26.35;19.33;;;;;;;15.56;100.00;95024.59;5064822;28;20058;-64
2022/08/31 00:52:41;;;;;;;31.63;19.77;;;;;;;15.58;100.00;95026.97;5061139;28;20044;-64
2022/08/31 00:55:27;;;;;;;27.35;19.92;;;;;;;15.57;100.00;95015.66;5079655;28;20109;-63
2022/08/31 00:57:58;;;;;;;27.25;19.50;;;;;;;15.56;100.00;95018.56;5078992;28;20046;-64
2022/08/31 01:00:27;;;;;;;28.40;19.88;;;;;;;15.55;100.00;95024.88;5079923;28;20432;-66
2022/08/31 01:02:56;;;;;;;29.40;20.20;;;;;;;15.47;100.00;95016.44;5062179;28;20987;-64
2022/08/31 01:05:24;;;;;;;28.67;19.20;;;;;;;15.38;100.00;95022.44;5081751;28;20047;-66
2022/08/31 01:07:52;;;;;;;27.35;19.88;;;;;;;15.37;100.00;95021.63;5081698;28;20044;-64
2022/08/31 01:10:22;;;;;;;32.75;20.33;;;;;;;15.33;100.00;95014.53;5078884;28;20043;-64
2022/08/31 01:12:52;;;;;;;27.63;18.85;;;;;;;15.31;100.00;95020.03;5065202;28;20085;-64
2022/08/31 01:15:20;;;;;;;25.85;18.20;;;;;;;15.19;100.00;95025.47;5081070;28;20052;-64
2022/08/31 01:17:49;;;;;;;36.58;20.55;;;;;;;15.14;100.00;95027.28;5087856;28;20056;-64
2022/08/31 01:20:22;;;;;;;30.73;20.52;;;;;;;15.17;100.00;95021.56;5086796;28;20059;-63
2022/08/31 01:23:01;;;;;;;30.55;21.17;;;;;;;15.22;100.00;95024.97;5065847;28;20036;-65
2022/08/31 01:25:28;;;;;;;31.80;20.48;;;;;;;15.26;100.00;95020.78;5075460;28;20101;-65
2022/08/31 01:28:03;;;;;;;39.97;21.85;;;;;;;15.27;100.00;95026.84;5083138;28;20545;-65
2022/08/31 01:30:30;;;;;;;29.13;18.63;;;;;;;15.26;100.00;95014.78;5078476;28;20036;-65
2022/08/31 01:32:57;;;;;;;30.85;19.80;;;;;;;15.19;100.00;95016.84;5078283;28;20077;-64
2022/08/31 01:35:25;;;;;;;31.75;20.23;;;;;;;15.17;100.00;95021.56;5079204;28;20063;-65
2022/08/31 01:37:52;;;;;;;44.05;21.20;;;;;;;15.15;100.00;95019.19;5081314;28;20046;-64
2022/08/31 01:40:19;;;;;;;34.33;21.02;;;;;;;15.18;100.00;95013.44;5064545;28;20130;-64
2022/08/31 01:42:46;;;;;;;28.60;20.52;;;;;;;15.21;100.00;95014.75;5075589;28;20134;-64
2022/08/31 01:45:14;;;;;;;27.73;18.85;;;;;;;15.25;100.00;95021.06;5068563;28;20046;-64
2022/08/31 01:47:40;;;;;;;31.85;19.90;;;;;;;15.28;100.00;95023.16;5063758;28;20052;-64
2022/08/31 01:50:08;;;;;;;25.50;19.60;;;;;;;15.28;100.00;95028.41;5081941;28;20486;-63
2022/08/31 01:52:36;;;;;;;32.63;20.42;;;;;;;15.21;100.00;95012.91;5080847;28;20379;-65
2022/08/31 01:55:05;;;;;;;28.25;19.70;;;;;;;15.28;100.00;95017.91;5066726;28;20067;-64
2022/08/31 01:57:32;;;;;;;29.98;19.05;;;;;;;15.26;100.00;95020.03;5065579;28;20046;-65
2022/08/31 02:00:30;;;;;;;35.20;20.38;;;;;;;15.25;100.00;95015.81;5081674;28;20055;-65
2022/08/31 02:02:59;;;;;;;29.25;20.48;;;;;;;15.24;100.00;95022.09;5062966;28;20052;-65
2022/08/31 02:05:27;;;;;;;35.28;20.35;;;;;;;15.17;100.00;95017.09;5062142;28;20062;-65
2022/08/31 02:07:55;;;;;;;27.83;19.13;;;;;;;15.17;100.00;95021.56;5060830;28;20118;-65
2022/08/31 02:10:23;;;;;;;29.42;20.40;;;;;;;15.10;100.00;95012.06;5063667;28;20047;-65
2022/08/31 02:12:51;;;;;;;32.50;19.90;;;;;;;15.07;100.00;95006.53;5060658;28;20072;-65
2022/08/31 02:15:28;;;;;;;30.73;20.67;;;;;;;14.91;100.00;94997.81;5078936;28;20063;-64
2022/08/31 02:17:55;;;;;;;29.02;19.13;;;;;;;14.97;100.00;95011.75;5079933;28;20563;-65
2022/08/31 02:20:22;;;;;;;33.08;20.60;;;;;;;14.90;100.00;95006.72;5061644;28;20402;-65
2022/08/31 02:22:49;;;;;;;35.78;21.77;;;;;;;14.93;100.00;95000.97;5062999;28;20210;-65
2022/08/31 02:25:16;;;;;;;34.50;20.20;;;;;;;14.91;100.00;95003.06;5075159;28;20043;-65
2022/08/31 02:27:44;;;;;;;30.63;19.33;;;;;;;14.95;100.00;95013.81;5079281;28;20036;-65
2022/08/31 02:30:15;;;;;;;26.08;19.38;;;;;;;14.88;100.00;95009.56;5060412;28;20051;-65
2022/08/31 02:32:42;;;;;;;29.02;20.70;;;;;;;14.96;100.00;95015.41;5062585;28;20074;-65
2022/08/31 02:35:10;;;;;;;32.58;21.23;;;;;;;14.97;100.00;95004.66;5060238;28;20048;-65
2022/08/31 02:37:37;;;;;;;38.20;20.08;;;;;;;14.98;100.00;95008.88;5064641;28;20121;-65
2022/08/31 02:40:07;;;;;;;28.30;18.98;;;;;;;14.96;100.00;95021.41;5084187;28;20036;-66
2022/08/31 02:42:37;;;;;;;31.33;20.65;;;;;;;14.98;100.00;95016.72;5066672;28;20047;-65
2022/08/31 02:45:21;;;;;;;32.33;21.10;;;;;;;14.91;100.00;95008.31;5063498;28;20035;-65
2022/08/31 02:47:47;;;;;;;41.00;20.48;;;;;;;14.94;100.00;95017.47;5064758;28;21101;-64
2022/08/31 02:50:22;;;;;;;33.35;20.65;;;;;;;14.95;100.00;95024.31;5058706;28;20039;-65
2022/08/31 02:52:52;;;;;;;33.00;21.10;;;;;;;14.91;100.00;95013.53;5070005;28;20455;-64
2022/08/31 02:55:20;;;;;;;27.60;19.65;;;;;;;14.83;100.00;95019.25;5065314;28;20040;-66
2022/08/31 02:57:49;;;;;;;29.77;20.08;;;;;;;14.76;100.00;95016.06;5078721;28;20187;-66
2022/08/31 03:00:22;;;;;;;33.33;21.80;;;;;;;14.78;100.00;95019.22;5065190;28;20040;-66
2022/08/31 03:02:49;;;;;;;36.60;20.23;;;;;;;14.75;100.00;95024.94;5084786;28;20051;-66
2022/08/31 03:05:16;;;;;;;27.08;20.02;;;;;;;14.78;100.00;95013.97;5063569;28;20132;-65
2022/08/31 03:07:44;;;;;;;36.08;20.25;;;;;;;14.76;100.00;95016.06;5081113;28;20036;-66
2022/08/31 03:10:13;;;;;;;40.08;20.58;;;;;;;14.75;100.00;95011.84;5065743;28;20042;-66
2022/08/31 03:12:41;;;;;;;30.02;20.73;;;;;;;14.67;100.00;95003.41;5063824;28;20048;-65
2022/08/31 03:15:09;;;;;;;30.83;19.85;;;;;;;14.65;100.00;95000.25;5065280;28;20044;-66
2022/08/31 03:17:36;;;;;;;30.55;20.83;;;;;;;14.65;100.00;94989.75;5064690;28;20129;-66
2022/08/31 03:20:07;;;;;;;31.77;21.02;;;;;;;14.67;100.00;94992.91;5068251;28;20059;-66
2022/08/31 03:22:34;;;;;;;32.13;20.80;;;;;;;14.69;100.00;95001.34;5070310;28;20048;-66
2022/08/31 03:25:04;;;;;;;29.20;20.05;;;;;;;14.64;100.00;94990.81;5067353;28;20071;-64
2022/08/31 03:27:31;;;;;;;30.73;19.88;;;;;;;14.52;100.00;94977.84;5080948;28;20047;-65
2022/08/31 03:29:58;;;;;;;34.88;21.58;;;;;;;14.60;100.00;94992.34;5056627;28;20048;-65
2022/08/31 03:32:30;;;;;;;32.50;21.25;;;;;;;14.59;100.00;95000.50;5086257;28;20101;-65
2022/08/31 03:34:59;;;;;;;34.35;19.83;;;;;;;14.59;100.00;95003.88;5071107;28;20059;-65
2022/08/31 03:37:27;;;;;;;38.63;22.25;;;;;;;14.64;100.00;95003.94;5072814;28;20032;-66
2022/08/31 03:39:58;;;;;;;30.80;20.75;;;;;;;14.57;100.00;94987.59;5066028;28;20044;-66
2022/08/31 03:42:26;;;;;;;29.38;21.13;;;;;;;14.69;100.00;95000.53;5071577;28;20036;-66
2022/08/31 03:44:54;;;;;;;33.00;22.45;;;;;;;14.71;100.00;94994.03;5069149;28;20048;-65
2022/08/31 03:47:27;;;;;;;33.72;19.60;;;;;;;14.74;100.00;94997.94;5064289;28;20188;-65
2022/08/31 03:49:54;;;;;;;32.72;20.50;;;;;;;14.72;100.00;95000.81;5068299;28;20048;-66
2022/08/31 03:52:26;;;;;;;35.55;20.73;;;;;;;14.71;100.00;95001.88;5068832;28;20040;-65
2022/08/31 03:55:00;;;;;;;31.50;19.83;;;;;;;14.74;100.00;94997.16;5052487;28;20055;-66
2022/08/31 03:57:28;;;;;;;30.00;21.08;;;;;;;14.70;100.00;95000.28;5067569;28;20505;-65
2022/08/31 03:59:59;;;;;;;46.63;21.30;;;;;;;14.74;100.00;94997.16;5067977;28;20090;-66
2022/08/31 04:02:46;;;;;;;30.77;20.40;;;;;;;14.68;100.00;95007.63;5084650;28;20126;-66
2022/08/31 04:05:40;;;;;;;28.73;19.65;;;;;;;14.63;100.00;95002.34;5079596;28;20040;-65
2022/08/31 04:08:10;;;;;;;33.00;20.23;;;;;;;14.57;100.00;95003.31;5089035;28;20032;-65
2022/08/31 04:10:55;;;;;;;29.23;20.25;;;;;;;14.53;100.00;95010.09;5077235;28;20109;-67
2022/08/31 04:13:42;;;;;;;34.00;19.60;;;;;;;14.56;100.00;95006.97;5077370;28;20060;-66
2022/08/31 04:16:27;;;;;;;41.30;22.65;;;;;;;14.59;100.00;94998.66;5083296;28;20432;-66
2022/08/31 04:19:07;;;;;;;41.47;24.73;;;;;;;14.64;100.00;95003.13;5085903;28;20052;-66
2022/08/31 04:21:43;;;;;;;38.97;24.88;;;;;;;14.63;100.00;95007.59;5069379;28;20900;-66
2022/08/31 04:24:12;;;;;;;37.92;23.35;;;;;;;14.72;100.00;95015.78;5068162;28;20075;-66
2022/08/31 04:26:42;;;;;;;36.67;23.05;;;;;;;14.73;100.00;95001.63;5064243;28;20040;-66
2022/08/31 04:29:10;;;;;;;34.42;22.88;;;;;;;14.85;100.00;95014.53;5066842;28;20054;-67
2022/08/31 04:31:40;;;;;;;40.92;23.17;;;;;;;14.89;100.00;95011.16;5060675;28;20155;-67
2022/08/31 04:34:07;;;;;;;33.70;21.90;;;;;;;14.95;100.00;95014.63;5064083;28;20668;-66
2022/08/31 04:36:34;;;;;;;38.35;23.00;;;;;;;15.03;100.00;95011.50;5066415;28;20032;-65
2022/08/31 04:39:02;;;;;;;33.72;22.65;;;;;;;15.05;100.00;95014.69;5069224;28;20131;-65
2022/08/31 04:41:31;;;;;;;38.60;21.55;;;;;;;15.13;100.00;95012.63;5064882;28;20725;-67
2022/08/31 04:43:59;;;;;;;40.65;22.20;;;;;;;15.24;100.00;95016.88;5063144;28;20113;-68
2022/08/31 04:46:28;;;;;;;34.13;21.77;;;;;;;15.35;100.00;95021.09;5055460;28;20555;-64
2022/08/31 04:48:56;;;;;;;33.45;23.00;;;;;;;15.29;100.00;94993.28;5085887;28;20036;-67
2022/08/31 04:51:34;;;;;;;35.03;21.50;;;;;;;15.54;100.00;95021.47;5085888;28;20043;-66
2022/08/31 04:54:04;;;;;;;34.65;21.65;;;;;;;15.67;100.00;95025.44;5087234;28;20081;-64
2022/08/31 04:56:34;;;;;;;33.03;21.85;;;;;;;15.71;100.00;95018.63;5062248;28;20047;-64
2022/08/31 04:59:04;;;;;;;31.38;21.52;;;;;;;15.74;100.00;95020.75;5067281;28;20031;-64
2022/08/31 05:01:40;;;;;;;31.27;22.05;;;;;;;15.76;100.00;95023.13;5072336;28;20032;-64
2022/08/31 05:04:28;;;;;;;30.73;20.52;;;;;;;15.78;100.00;95027.06;5083290;28;20051;-64
2022/08/31 05:06:55;;;;;;;38.80;21.63;;;;;;;15.79;100.00;95023.41;5067414;28;20954;-63
2022/08/31 05:09:23;;;;;;;33.38;23.05;;;;;;;15.75;100.00;95005.78;5066375;28;20052;-63
2022/08/31 05:11:52;;;;;;;33.28;23.50;;;;;;;15.83;100.00;95013.94;5069616;28;20048;-64
2022/08/31 05:14:20;;;;;;;35.08;22.58;;;;;;;15.91;100.00;95019.75;5051437;28;20167;-64
2022/08/31 05:17:00;;;;;;;33.00;22.73;;;;;;;15.88;100.00;95020.25;5059949;28;20525;-63
2022/08/31 05:19:30;;;;;;;34.85;23.60;;;;;;;15.89;100.00;95011.34;5060348;28;20361;-63
2022/08/31 05:21:58;;;;;;;39.72;24.00;;;;;;;15.94;100.00;95008.72;5064081;28;20044;-64
2022/08/31 05:24:26;;;;;;;38.67;23.50;;;;;;;15.99;100.00;95000.84;5061918;28;20085;-65
2022/08/31 05:26:54;;;;;;;36.22;22.58;;;;;;;16.09;100.00;94994.81;5060527;28;20039;-64
2022/08/31 05:29:24;;;;;;;38.17;24.52;;;;;;;16.22;100.00;94995.09;5063395;28;20040;-65
2022/08/31 05:32:06;;;;;;;40.65;23.50;;;;;;;16.38;100.00;94987.22;5061379;28;20109;-65
2022/08/31 05:34:33;;;;;;;39.38;25.63;;;;;;;16.52;100.00;94987.47;5063503;28;20517;-65
2022/08/31 05:37:00;;;;;;;38.33;24.20;;;;;;;16.71;100.00;94995.59;5064808;28;20675;-65
2022/08/31 05:39:32;;;;;;;36.75;25.75;;;;;;;16.88;100.00;94998.75;5056488;28;20040;-64
2022/08/31 05:41:59;;;;;;;40.67;26.02;;;;;;;17.00;100.00;94994.00;5070089;28;20518;-64
2022/08/31 05:44:26;;;;;;;45.63;25.77;;;;;;;17.16;100.00;94991.31;5070536;28;20521;-64
2022/08/31 05:46:56;;;;;;;43.05;25.35;;;;;;;17.29;100.00;94996.03;5065138;28;20328;-65
2022/08/31 05:49:31;;;;;;;41.97;26.50;;;;;;;17.48;100.00;94998.06;5065461;28;20050;-65
2022/08/31 05:51:59;;;;;;;39.40;25.13;;;;;;;17.60;100.00;94990.63;5081985;28;20050;-64
2022/08/31 05:54:28;;;;;;;34.70;24.17;;;;;;;17.81;100.00;94996.59;5068040;28;20051;-63
2022/08/31 05:56:55;;;;;;;53.38;25.08;;;;;;;18.00;100.00;95002.03;5065774;28;20043;-65
2022/08/31 05:59:30;;;;;;;30.83;23.35;;;;;;;18.17;100.00;94998.22;5065119;28;20048;-67
2022/08/31 06:01:59;;;;;;;31.73;21.77;;;;;;;18.35;100.00;94989.69;5066299;28;20047;-66
2022/08/31 06:04:30;;;;;;;29.15;21.77;;;;;;;18.46;100.00;94991.16;5080722;28;20056;-65
2022/08/31 06:06:58;;;;;;;32.08;22.10;;;;;;;18.59;100.00;94988.97;5088998;28;20235;-65
2022/08/31 06:09:30;;;;;;;34.53;22.63;;;;;;;18.73;100.00;94989.88;5072084;28;20159;-65
2022/08/31 06:11:57;;;;;;;29.73;21.25;;;;;;;18.71;100.00;94989.38;5091219;28;20131;-67
2022/08/31 06:14:24;;;;;;;41.40;23.42;;;;;;;18.66;100.00;94984.16;5074729;28;20533;-67
2022/08/31 06:16:55;;;;;;;35.90;23.02;;;;;;;18.77;100.00;94980.34;5074644;28;20048;-66
2022/08/31 06:19:22;;;;;;;35.53;23.38;;;;;;;18.91;100.00;94976.00;5089270;28;20028;-66
2022/08/31 06:21:51;;;;;;;35.95;22.73;;;;;;;19.01;100.00;94974.31;5075083;28;20105;-65
2022/08/31 06:24:23;;;;;;;38.17;22.20;;;;;;;19.12;100.00;94981.06;5067981;28;20157;-66
2022/08/31 06:26:54;;;;;;;41.03;22.65;;;;;;;19.27;100.00;94983.53;5067956;28;20051;-66
2022/08/31 06:29:30;;;;;;;30.27;21.60;;;;;;;19.39;100.00;94991.06;5053121;28;20039;-65
2022/08/31 06:31:59;;;;;;;33.33;22.60;;;;;;;19.51;100.00;94982.72;5056968;28;20063;-65
2022/08/31 06:34:27;;;;;;;39.30;22.17;;;;;;;19.70;100.00;94984.59;5071735;28;20039;-64
2022/08/31 06:37:05;;;;;;;31.92;20.70;;;;;;;19.79;100.00;94975.78;5089841;28;20043;-70
2022/08/31 06:39:40;;;;;;;34.80;21.38;;;;;;;19.93;100.00;94970.56;5070699;28;20036;-64
2022/08/31 06:42:34;;;;;;;31.13;21.52;;;;;;;20.10;100.00;94978.00;5069027;28;20477;-66
2022/08/31 06:45:26;;;;;;;35.47;22.08;;;;;;;20.25;100.00;94984.91;5046839;28;20118;-66
2022/08/31 06:48:02;;;;;;;30.38;20.98;;;;;;;20.42;100.00;94985.19;5062678;28;20040;-66
2022/08/31 06:50:31;;;;;;;30.48;20.35;;;;;;;20.53;100.00;94985.03;5066327;28;20108;-67
2022/08/31 06:52:58;;;;;;;34.15;20.13;;;;;;;20.58;100.00;94992.84;5066296;28;20048;-66
2022/08/31 06:55:43;;;;;;;33.67;18.20;;;;;;;20.71;100.00;94997.44;5078592;28;20063;-70
2022/08/31 06:58:29;;;;;;;22.75;16.90;;;;;;;20.91;100.00;94995.53;5089780;28;20059;-69
2022/08/31 07:00:57;;;;;;;28.30;18.63;;;;;;;20.83;100.00;94956.47;5083843;28;20048;-69
2022/08/31 07:03:47;;;;;;;27.08;18.20;;;;;;;21.07;100.00;94988.88;5069543;28;20540;-70
2022/08/31 07:06:19;;;;;;;29.10;18.88;;;;;;;21.12;100.00;94991.44;5064369;28;20048;-70
2022/08/31 07:08:51;;;;;;;25.13;16.77;;;;;;;21.26;100.00;94980.03;5065851;28;20051;-70
2022/08/31 07:11:32;;;;;;;27.27;18.50;;;;;;;21.40;100.00;94975.53;5061127;28;20043;-75
2022/08/31 07:14:01;;;;;;;27.58;18.73;;;;;;;21.48;100.00;94980.16;5064197;28;20043;-69
2022/08/31 07:16:29;;;;;;;24.58;17.58;;;;;;;21.56;100.00;94984.75;5066547;28;20058;-70
2022/08/31 07:18:59;;;;;;;26.90;18.33;;;;;;;21.76;100.00;94988.06;5080092;28;20039;-68
2022/08/31 07:21:29;;;;;;;27.08;16.77;;;;;;;21.91;100.00;94987.75;5064930;28;20113;-69
2022/08/31 07:23:59;;;;;;;22.88;17.58;;;;;;;21.98;100.00;94975.94;5069973;28;20047;-70
2022/08/31 07:26:31;;;;;;;24.27;16.52;;;;;;;22.22;100.00;94989.72;5079718;28;20046;-70
2022/08/31 07:29:04;;;;;;;26.05;16.25;;;;;;;22.17;100.00;94992.47;5073534;28;20040;-70
2022/08/31 07:31:41;;;;;;;22.88;14.75;;;;;;;22.24;100.00;94992.84;5081345;28;20540;-70
2022/08/31 07:34:09;;;;;;;22.70;15.48;;;;;;;22.18;100.00;94983.41;5065872;28;20036;-70
2022/08/31 07:42:27;;;;;;;25.88;13.50;;;;;;;22.26;100.00;94995.19;5064387;28;20673;-69
2022/08/31 07:45:04;;;;;;;25.17;13.63;;;;;;;22.32;100.00;94984.19;5060798;28;20051;-69
2022/08/31 07:47:32;;;;;;;17.88;11.90;;;;;;;22.23;100.00;94983.31;5074994;28;20064;-70
2022/08/31 07:50:00;;;;;;;17.27;12.07;;;;;;;22.49;100.00;94993.34;5062997;28;20056;-69
2022/08/31 07:52:45;;;;;;;21.40;14.75;;;;;;;22.56;100.00;94987.63;5046730;28;20051;-69
2022/08/31 07:55:34;;;;;;;16.88;11.50;;;;;;;22.39;100.00;94967.06;5061899;28;20044;-69
2022/08/31 07:58:14;;;;;;;16.55;12.13;;;;;;;22.65;99.98;94981.28;5066261;28;20112;-69
2022/08/31 08:00:47;;;;;;;22.05;14.05;;;;;;;22.68;98.83;94978.00;5063162;28;20044;-69
2022/08/31 08:03:14;;;;;;;19.90;12.85;;;;;;;22.83;100.00;94965.44;5082415;28;20066;-70
2022/08/31 08:06:17;;;;;;;19.33;12.80;;;;;;;23.13;98.51;94976.38;5081266;28;20055;-70
2022/08/31 08:09:10;;;;;;;17.27;11.30;;;;;;;23.28;96.63;94962.66;5062717;28;20040;-70
2022/08/31 08:12:16;;;;;;;20.25;12.90;;;;;;;23.52;95.74;94964.94;5018130;28;20098;-70
2022/08/31 08:15:06;;;;;;;20.95;12.32;;;;;;;23.77;95.30;94982.03;5066084;28;20086;-70
2022/08/31 08:17:59;;;;;;;15.37;12.60;;;;;;;23.87;94.53;94980.19;5049750;28;20059;-70
2022/08/31 08:20:32;;;;;;;15.75;11.60;;;;;;;23.99;92.47;94977.69;5045974;28;20533;-70
2022/08/31 08:23:13;;;;;;;19.17;10.57;;;;;;;24.24;93.70;94968.91;5063921;28;20053;-70
2022/08/31 08:26:08;;;;;;;19.52;11.27;;;;;;;24.38;91.23;94978.59;5063692;28;20753;-71
2022/08/31 08:29:05;;;;;;;19.65;11.95;;;;;;;24.52;90.74;94973.13;5082710;28;20047;-69
2022/08/31 08:31:36;;;;;;;15.55;10.48;;;;;;;24.35;91.32;94957.97;5069603;28;20060;-69
2022/08/31 08:34:05;;;;;;;19.58;11.25;;;;;;;24.76;89.22;94967.31;5088573;28;20039;-70
2022/08/31 08:36:34;;;;;;;13.32;10.82;;;;;;;24.91;89.45;94974.78;5065593;28;20043;-70
2022/08/31 08:39:07;;;;;;;19.02;12.13;;;;;;;24.95;82.34;94959.69;5084069;28;20460;-70
2022/08/31 08:41:38;;;;;;;19.52;11.70;;;;;;;25.13;80.99;94971.06;5070150;28;20046;-70
2022/08/31 08:44:11;;;;;;;20.48;11.73;;;;;;;25.42;79.80;94963.47;5068607;28;20778;-70
2022/08/31 08:46:53;;;;;;;16.95;12.15;;;;;;;25.52;78.44;94965.75;5068511;28;20044;-70
2022/08/31 08:49:45;;;;;;;15.32;11.27;;;;;;;25.70;76.29;94961.88;5069656;28;20034;-70
2022/08/31 08:52:26;;;;;;;13.68;9.25;;;;;;;25.94;76.27;94965.81;5059011;28;20638;-69
2022/08/31 08:54:59;;;;;;;25.38;10.70;;;;;;;26.05;73.64;94940.28;5054942;28;20054;-70
2022/08/31 08:57:30;;;;;;;15.07;10.77;;;;;;;26.30;74.82;94956.41;5047084;28;20047;-70
2022/08/31 09:00:06;;;;;;;12.88;10.65;;;;;;;26.43;72.74;94947.34;5063464;28;20048;-70
2022/08/31 09:02:34;;;;;;;16.33;10.68;;;;;;;26.49;72.70;94943.38;5062756;28;20760;-70
2022/08/31 09:05:23;;;;;;;15.07;11.98;;;;;;;26.65;72.01;94945.41;5063543;28;20050;-70
2022/08/31 09:08:13;;;;;;;25.42;12.13;;;;;;;26.74;71.32;94938.13;5047023;28;20039;-69
2022/08/31 09:10:44;;;;;;;20.02;11.10;;;;;;;26.91;70.57;94931.00;5062156;28;20050;-69
2022/08/31 09:13:42;;;;;;;18.77;9.45;;;;;;;26.89;70.66;94924.09;5063034;28;20174;-70
2022/08/31 09:16:19;;;;;;;12.98;10.23;;;;;;;27.07;69.62;94929.22;5060749;28;20138;-70
2022/08/31 09:19:03;;;;;;;15.75;10.35;;;;;;;27.46;70.53;94925.13;5064987;28;20032;-71
2022/08/31 09:21:37;;;;;;;14.48;10.93;;;;;;;27.72;67.63;94915.16;5046739;28;20040;-70
2022/08/31 09:24:11;;;;;;;21.58;11.48;;;;;;;27.59;67.28;94907.16;5063456;28;20123;-69
2022/08/31 09:27:26;;;;;;;18.95;10.27;;;;;;;27.77;66.75;94912.25;5064600;28;20036;-71
2022/08/31 09:29:56;;;;;;;15.77;9.88;;;;;;;27.84;65.47;94912.47;5078909;28;20109;-71
2022/08/31 09:32:26;;;;;;;14.43;9.82;;;;;;;27.95;64.17;94915.47;5064174;28;20533;-70
2022/08/31 09:35:05;;;;;;;13.98;9.00;;;;;;;28.21;63.14;94915.00;5085055;28;20051;-70
2022/08/31 09:37:45;;;;;;;13.98;9.07;;;;;;;28.13;64.64;94918.63;5079499;28;20139;-71
2022/08/31 09:40:22;;;;;;;14.93;9.40;;;;;;;28.34;63.16;94919.22;5086783;28;20035;-70
2022/08/31 09:43:13;;;;;;;12.85;9.18;;;;;;;28.72;61.03;94912.56;5066790;28;20126;-70
2022/08/31 09:46:11;;;;;;;11.68;8.80;;;;;;;29.21;58.33;94905.28;5083580;28;20528;-71
2022/08/31 09:48:50;;;;;;;16.08;8.77;;;;;;;29.41;58.27;94901.53;5085752;28;20032;-70
2022/08/31 09:51:28;;;;;;;20.35;9.57;;;;;;;29.46;56.86;94901.28;5072198;28;20516;-70
2022/08/31 09:56:58;;;;;;;15.80;9.13;;;;;;;29.43;55.71;94879.72;5085313;28;20054;-71
2022/08/31 09:59:42;;;;;;;17.27;9.35;;;;;;;29.80;53.24;94866.72;5072869;28;20046;-71
2022/08/31 10:02:25;;;;;;;14.55;8.52;;;;;;;30.13;53.55;94868.13;5092563;28;20739;-71
2022/08/31 10:04:59;;;;;;;13.93;8.43;;;;;;;30.78;50.93;94863.88;5090875;28;20051;-71
2022/08/31 10:07:36;;;;;;;12.27;7.97;;;;;;;31.39;49.87;94876.34;5085150;28;20109;-70
2022/08/31 10:10:10;;;;;;;19.35;7.22;;;;;;;31.66;43.99;94873.66;5075904;28;20142;-71
2022/08/31 10:13:02;;;;;;;18.35;6.80;;;;;;;31.44;43.04;94881.41;5087859;28;20051;-71
2022/08/31 10:15:51;;;;;;;12.98;6.22;;;;;;;31.25;40.12;94873.47;5069813;28;20059;-71
2022/08/31 10:18:42;;;;;;;10.23;6.50;;;;;;;30.66;40.50;94883.66;5080550;28;20048;-71
2022/08/31 10:21:20;;;;;;;6.95;5.38;;;;;;;30.03;42.28;94868.69;5086140;28;20059;-70
2022/08/31 10:23:56;;;;;;;10.35;6.18;;;;;;;29.40;43.77;94854.38;5069403;28;20040;-71
2022/08/31 10:26:35;;;;;;;8.50;6.63;;;;;;;29.03;44.51;94862.72;5084062;28;20047;-71
2022/08/31 10:29:12;;;;;;;10.35;6.30;;;;;;;28.69;45.69;94856.97;5060053;28;20207;-71
2022/08/31 10:31:52;;;;;;;19.63;6.32;;;;;;;28.41;46.26;94828.34;5064784;28;21395;-71
2022/08/31 10:38:07;;;;;;;18.23;6.00;;;;;;;28.02;43.85;94849.50;5082942;28;20048;-71
2022/08/31 10:40:40;;;;;;;;;;;;;;;27.78;45.89;94854.94;4983432;28;20106;-72
2022/08/31 10:43:12;;;;;;;11.73;6.53;;;;;;;27.55;51.95;94844.75;5000564;28;19935;-71
2022/08/31 10:45:43;;;;;;;11.27;7.45;;;;;;;27.16;57.54;94846.25;5058195;28;20056;-72
2022/08/31 10:48:11;;;;;;;22.83;8.10;;;;;;;26.67;66.60;94839.03;5065992;28;20048;-72
2022/08/31 10:50:44;;;;;;;21.60;10.75;;;;;;;26.13;76.68;94854.03;5083566;28;20040;-72
2022/08/31 10:53:26;;;;;;;29.42;11.65;;;;;;;25.52;82.40;94865.22;5064736;28;20544;-72
2022/08/31 10:56:01;;;;;;;23.02;10.43;;;;;;;24.96;87.41;94870.69;5079962;28;20051;-72
2022/08/31 10:58:46;;;;;;;17.60;11.15;;;;;;;23.95;88.16;94870.34;5065989;28;20124;-72
2022/08/31 11:01:23;;;;;;;12.45;8.45;;;;;;;22.65;89.42;94871.66;5064995;28;20063;-72
2022/08/31 11:04:02;;;;;;;20.88;10.48;;;;;;;21.85;97.92;94880.22;5066118;28;20043;-70
2022/08/31 11:06:44;;;;;;;22.35;11.65;;;;;;;21.45;100.00;94877.41;5061839;28;20710;-72
2022/08/31 11:09:31;;;;;;;23.15;12.73;;;;;;;21.28;100.00;94867.41;5065771;28;20039;-71
2022/08/31 11:12:05;;;;;;;19.23;11.48;;;;;;;21.05;100.00;94890.41;5083982;28;20364;-71
2022/08/31 11:14:48;;;;;;;24.48;13.52;;;;;;;20.78;100.00;94886.69;5083602;28;20138;-71
2022/08/31 11:17:31;;;;;;;19.73;12.60;;;;;;;20.75;100.00;94887.25;5082233;28;20036;-71
2022/08/31 11:20:23;;;;;;;13.02;11.20;;;;;;;20.85;96.10;94882.84;5068680;28;20078;-70
2022/08/31 11:22:53;;;;;;;14.88;8.93;;;;;;;20.91;92.80;94873.75;5065773;28;20074;-71
2022/08/31 11:25:57;;;;;;;14.02;8.93;;;;;;;20.99;91.98;94854.50;5087299;28;20050;-71
2022/08/31 11:28:33;;;;;;;13.45;9.20;;;;;;;21.02;95.76;94843.34;5080169;28;20051;-71
2022/08/31 11:31:22;;;;;;;12.90;8.38;;;;;;;21.14;89.76;94846.25;5065283;28;20647;-70
2022/08/31 11:33:56;;;;;;;18.73;9.45;;;;;;;21.30;95.10;94827.38;5066623;28;20058;-71
2022/08/31 11:36:49;;;;;;;22.63;9.93;;;;;;;21.40;96.81;94832.47;5086073;28;20044;-71
2022/08/31 11:39:36;;;;;;;14.20;10.38;;;;;;;21.51;100.00;94828.53;5083145;28;20043;-71
2022/08/31 11:42:33;;;;;;;12.85;7.80;;;;;;;21.68;92.12;94824.44;5051969;28;20048;-71
2022/08/31 11:45:05;;;;;;;15.43;9.48;;;;;;;21.87;97.17;94819.72;5060324;28;20044;-72
2022/08/31 11:47:37;;;;;;;17.85;9.23;;;;;;;22.01;95.61;94829.50;5082763;28;20105;-71
2022/08/31 11:50:31;;;;;;;14.35;9.55;;;;;;;22.13;96.21;94832.38;5081324;28;20539;-72
2022/08/31 11:53:15;;;;;;;15.40;6.95;;;;;;;22.34;97.93;94837.97;5081290;28;20051;-71
2022/08/31 11:55:48;;;;;;;20.87;10.10;;;;;;;22.53;95.61;94840.41;5081063;28;20048;-71
2022/08/31 11:58:29;;;;;;;18.43;8.10;;;;;;;22.79;96.97;94850.31;5065904;28;21517;-72
2022/08/31 12:01:08;;;;;;;28.00;9.20;;;;;;;23.08;100.00;94850.59;5079321;28;21026;-71
2022/08/31 12:03:52;;;;;;;22.05;10.05;;;;;;;23.38;100.00;94856.09;5065249;28;20052;-71